KCLM/CLM METAR and TAF weather

Enter ICAO airport designator
Station Type Date Time Source
KCLM METAR 2019/06/18 15:53 UTC NOAA

KCLM 181553Z AUTO 29011G17KT 10SM CLR 14/11 A3024 RMK AO2 SLP238 T01390106


Station Type Date Time Source
KCLM Decoded METAR 2019/06/18 15:53 UTC NOAA

PORT ANGELES FAIRCHILD INTERNATIONAL , WA, United States (KCLM) 48-07N 123-30W 85M
Jun 18, 2019 - 11:53 AM EDT / 2019.06.18 1553 UTC
Wind: from the WNW (290 degrees) at 13 MPH (11 KT) gusting to 20 MPH (17 KT):0
Visibility: 10 mile(s):0
Sky conditions: clear
Temperature: 57.0 F (13.9 C)
Dew Point: 51.1 F (10.6 C)
Relative Humidity: 80%
Pressure (altimeter): 30.24 in. Hg (1024 hPa)
ob: KCLM 181553Z AUTO 29011G17KT 10SM CLR 14/11 A3024 RMK AO2 SLP238 T01390106
cycle: 16

Station Type Date Time Source
KCLM TAF 2019/06/18 12:42 UTC NOAA

TAF KCLM 181139Z 1812/1912 28012KT P6SM SCT008 BKN015
FM181700 28012KT P6SM SCT015 BKN045
FM190100 28014G24KT P6SM SCT050
FM191000 28010KT P6SM OVC015

Example: see airport list